createdAt,value
2023-05-07T00:01:15.308Z,17.65
2023-05-07T00:03:44.118Z,17.67
2023-05-07T00:06:13.755Z,17.64
2023-05-07T00:08:41.875Z,17.68
2023-05-07T00:11:10.000Z,17.68
2023-05-07T00:13:38.065Z,17.69
2023-05-07T00:16:08.126Z,17.73
2023-05-07T00:18:36.267Z,17.72
2023-05-07T00:21:04.246Z,17.71
2023-05-07T00:23:32.315Z,17.72
2023-05-07T00:26:00.397Z,17.72
2023-05-07T00:28:28.433Z,17.71
2023-05-07T00:30:56.630Z,17.68
2023-05-07T00:33:27.777Z,17.67
2023-05-07T00:35:56.387Z,17.66
2023-05-07T00:38:24.370Z,17.58
2023-05-07T00:40:52.887Z,17.51
2023-05-07T00:43:21.205Z,17.40
2023-05-07T00:45:51.705Z,17.33
2023-05-07T00:48:20.332Z,17.27
2023-05-07T00:50:50.329Z,17.20
2023-05-07T00:53:18.479Z,17.17
2023-05-07T00:55:46.668Z,17.13
2023-05-07T00:58:14.722Z,17.09
2023-05-07T01:00:42.943Z,17.11
2023-05-07T01:03:10.917Z,17.12
2023-05-07T01:05:39.934Z,17.14
2023-05-07T01:08:09.999Z,17.11
2023-05-07T01:10:37.952Z,17.12
2023-05-07T01:13:08.436Z,17.13
2023-05-07T01:15:36.507Z,17.15
2023-05-07T01:18:04.895Z,17.18
2023-05-07T01:20:32.926Z,17.16
2023-05-07T01:23:03.285Z,17.20
2023-05-07T01:25:31.793Z,17.23
2023-05-07T01:28:01.022Z,17.28
2023-05-07T01:30:30.471Z,17.31
2023-05-07T01:33:04.218Z,17.33
2023-05-07T01:35:38.244Z,17.37
2023-05-07T01:38:08.264Z,17.38
2023-05-07T01:40:36.607Z,17.46
2023-05-07T01:43:05.157Z,17.47
2023-05-07T01:45:34.098Z,17.48
2023-05-07T01:48:02.330Z,17.49
2023-05-07T01:50:30.909Z,17.54
2023-05-07T01:52:59.018Z,17.57
2023-05-07T01:55:28.655Z,17.56
2023-05-07T01:57:56.593Z,17.57
2023-05-07T02:00:25.249Z,17.61
2023-05-07T02:02:54.011Z,17.64
2023-05-07T02:05:22.507Z,17.66
2023-05-07T02:07:50.562Z,17.64
2023-05-07T02:10:18.688Z,17.58
2023-05-07T02:12:48.385Z,17.57
2023-05-07T02:15:16.533Z,17.55
2023-05-07T02:18:02.850Z,17.57
2023-05-07T02:20:31.083Z,17.61
2023-05-07T02:22:58.993Z,17.68
2023-05-07T02:25:26.938Z,17.73
2023-05-07T02:27:56.301Z,17.74
2023-05-07T02:30:24.794Z,17.75
2023-05-07T02:32:52.744Z,17.77
2023-05-07T02:35:20.928Z,17.81
2023-05-07T02:37:48.908Z,17.80
2023-05-07T02:40:16.777Z,17.80
2023-05-07T02:42:44.757Z,17.77
2023-05-07T02:45:15.473Z,17.80
2023-05-07T02:47:43.448Z,17.76
2023-05-07T02:50:12.202Z,17.72
2023-05-07T02:52:40.548Z,17.68
2023-05-07T02:55:09.341Z,17.68
2023-05-07T02:57:37.416Z,17.65
2023-05-07T03:00:15.914Z,17.67
2023-05-07T03:02:44.148Z,17.69
2023-05-07T03:05:12.894Z,17.70
2023-05-07T03:07:40.985Z,17.70
2023-05-07T03:10:09.851Z,17.70
2023-05-07T03:12:38.077Z,17.66
2023-05-07T03:15:06.796Z,17.67
2023-05-07T03:17:37.395Z,17.68
2023-05-07T03:20:06.510Z,17.68
2023-05-07T03:22:35.370Z,17.69
2023-05-07T03:25:03.396Z,17.72
2023-05-07T03:27:31.451Z,17.75
2023-05-07T03:29:59.400Z,17.78
2023-05-07T03:32:27.477Z,17.81
2023-05-07T03:34:56.919Z,17.85
2023-05-07T03:37:24.885Z,17.89
2023-05-07T03:39:52.846Z,17.85
2023-05-07T03:42:21.118Z,17.81
2023-05-07T03:44:49.125Z,17.81
2023-05-07T03:47:17.015Z,17.81
2023-05-07T03:49:44.930Z,17.82
2023-05-07T03:52:14.423Z,17.86
2023-05-07T03:54:42.333Z,17.87
2023-05-07T03:57:10.230Z,17.86
2023-05-07T03:59:38.248Z,17.89
2023-05-07T04:02:06.272Z,17.91
2023-05-07T04:04:34.285Z,17.96
2023-05-07T04:07:02.712Z,17.98
2023-05-07T04:09:32.247Z,18.01
2023-05-07T04:12:00.243Z,18.01
2023-05-07T04:14:28.211Z,18.04
2023-05-07T04:16:56.379Z,18.06
2023-05-07T04:19:24.360Z,18.06
2023-05-07T04:21:52.422Z,18.11
2023-05-07T04:24:20.441Z,18.09
2023-05-07T04:26:49.964Z,18.09
2023-05-07T04:29:18.032Z,18.11
2023-05-07T04:31:46.184Z,18.09
2023-05-07T04:34:15.291Z,18.06
2023-05-07T04:36:44.478Z,18.05
2023-05-07T04:39:12.754Z,18.07
2023-05-07T04:41:40.841Z,18.11
2023-05-07T04:44:10.397Z,18.11
2023-05-07T04:46:38.353Z,18.15
2023-05-07T04:49:06.866Z,18.16
2023-05-07T04:51:34.879Z,18.17
2023-05-07T04:54:02.891Z,18.15
2023-05-07T04:56:31.212Z,18.21
2023-05-07T04:58:59.276Z,18.20
2023-05-07T05:01:28.804Z,18.19
2023-05-07T05:03:56.982Z,18.24
2023-05-07T05:06:25.047Z,18.25
2023-05-07T05:08:53.075Z,18.26
2023-05-07T05:11:22.247Z,18.27
2023-05-07T05:13:52.229Z,18.28
2023-05-07T05:16:20.496Z,18.33
2023-05-07T05:18:50.141Z,18.34
2023-05-07T05:21:18.115Z,18.28
2023-05-07T05:23:46.410Z,18.23
2023-05-07T05:26:14.496Z,18.27
2023-05-07T05:28:42.547Z,18.31
2023-05-07T05:31:10.589Z,18.33
2023-05-07T05:33:38.628Z,18.33
2023-05-07T05:36:11.521Z,18.37
2023-05-07T05:38:39.643Z,18.35
2023-05-07T05:41:08.151Z,18.40
2023-05-07T05:43:36.351Z,18.40
2023-05-07T05:46:07.330Z,18.42
2023-05-07T05:48:35.571Z,18.43
2023-05-07T05:51:03.672Z,18.42
2023-05-07T05:53:33.302Z,18.49
2023-05-07T05:56:13.239Z,18.49
2023-05-07T05:58:49.865Z,18.51
2023-05-07T06:01:18.084Z,18.58
2023-05-07T06:04:00.504Z,18.57
2023-05-07T06:06:29.306Z,18.61
2023-05-07T06:08:59.089Z,18.69
2023-05-07T06:11:28.904Z,18.74
2023-05-07T06:13:57.011Z,18.79
2023-05-07T06:16:25.179Z,18.84
2023-05-07T06:18:53.272Z,18.84
2023-05-07T06:21:21.211Z,18.77
2023-05-07T06:23:49.412Z,18.80
2023-05-07T06:26:18.921Z,18.82
2023-05-07T06:28:46.930Z,18.87
2023-05-07T06:31:16.839Z,18.97
2023-05-07T06:33:46.254Z,18.94
2023-05-07T06:36:14.433Z,19.03
2023-05-07T06:38:42.371Z,19.07
2023-05-07T06:41:10.672Z,19.10
2023-05-07T06:43:40.074Z,19.19
2023-05-07T06:46:08.558Z,19.25
2023-05-07T06:48:36.596Z,19.26
2023-05-07T06:51:04.717Z,19.37
2023-05-07T06:53:33.012Z,19.39
2023-05-07T06:56:01.051Z,19.48
2023-05-07T06:58:29.093Z,19.52
2023-05-07T07:00:59.725Z,19.50
2023-05-07T07:03:27.702Z,19.55
2023-05-07T07:05:55.919Z,19.59
2023-05-07T07:08:24.450Z,19.56
2023-05-07T07:10:52.580Z,19.49
2023-05-07T07:13:20.756Z,19.49
2023-05-07T07:15:48.836Z,19.44
2023-05-07T07:18:18.359Z,19.42
2023-05-07T07:20:46.777Z,19.36
2023-05-07T07:23:14.949Z,19.33
2023-05-07T07:25:43.180Z,19.38
2023-05-07T07:28:12.497Z,19.44
2023-05-07T07:30:40.860Z,19.46
2023-05-07T07:33:09.227Z,19.50
2023-05-07T07:35:38.753Z,19.55
2023-05-07T07:38:06.827Z,19.56
2023-05-07T07:40:37.256Z,19.58
2023-05-07T07:43:05.974Z,19.63
2023-05-07T07:45:34.034Z,19.59
2023-05-07T07:48:02.152Z,19.56
2023-05-07T07:50:43.413Z,19.53
2023-05-07T07:53:15.031Z,19.55
2023-05-07T07:55:43.366Z,19.55
2023-05-07T07:58:11.434Z,19.60
2023-05-07T08:00:39.402Z,19.69
2023-05-07T08:03:08.517Z,19.77
2023-05-07T08:05:37.352Z,19.70
2023-05-07T08:08:05.983Z,19.65
2023-05-07T08:10:39.443Z,19.58
2023-05-07T08:13:07.627Z,19.50
2023-05-07T08:15:35.923Z,19.41
2023-05-07T08:18:04.514Z,19.33
2023-05-07T08:20:32.982Z,19.24
2023-05-07T08:23:01.099Z,19.19
2023-05-07T08:25:29.076Z,19.12
2023-05-07T08:27:58.731Z,19.08
2023-05-07T08:30:27.215Z,18.95
2023-05-07T08:32:55.491Z,18.90
2023-05-07T08:35:24.003Z,18.86
2023-05-07T08:37:51.985Z,19.02
2023-05-07T08:40:20.231Z,19.19
2023-05-07T08:42:51.319Z,19.37
2023-05-07T08:45:25.060Z,19.58
2023-05-07T08:47:57.766Z,19.82
2023-05-07T08:50:26.349Z,20.05
2023-05-07T08:52:54.661Z,20.27
2023-05-07T08:55:22.960Z,20.38
2023-05-07T08:57:51.189Z,20.40
2023-05-07T09:00:21.062Z,20.41
2023-05-07T09:02:49.363Z,20.58
2023-05-07T09:05:17.421Z,20.70
2023-05-07T09:07:45.588Z,20.65
2023-05-07T09:10:14.209Z,20.58
2023-05-07T09:12:42.419Z,20.43
2023-05-07T09:15:13.120Z,20.35
2023-05-07T09:17:43.597Z,20.25
2023-05-07T09:20:12.329Z,20.28
2023-05-07T09:22:40.643Z,20.27
2023-05-07T09:25:10.492Z,20.21
2023-05-07T09:27:39.437Z,20.19
2023-05-07T09:30:10.190Z,20.22
2023-05-07T09:32:40.207Z,20.39
2023-05-07T09:35:17.576Z,20.68
2023-05-07T09:37:46.109Z,20.94
2023-05-07T09:40:23.108Z,21.05
2023-05-07T09:42:51.919Z,21.09
2023-05-07T09:45:24.705Z,21.24
2023-05-07T09:50:29.867Z,21.56
2023-05-07T09:52:59.374Z,21.55
2023-05-07T09:55:28.091Z,21.43
2023-05-07T09:57:56.759Z,21.47
2023-05-07T10:00:25.070Z,21.46
2023-05-07T10:02:54.722Z,21.43
2023-05-07T10:05:26.249Z,21.32
2023-05-07T10:07:55.205Z,21.25
2023-05-07T10:10:24.209Z,21.15
2023-05-07T10:12:53.053Z,21.11
2023-05-07T10:15:21.214Z,21.08
2023-05-07T10:17:50.590Z,20.94
2023-05-07T10:20:18.623Z,20.79
2023-05-07T10:22:49.757Z,20.78
2023-05-07T10:25:25.135Z,20.86
2023-05-07T10:27:56.539Z,20.98
2023-05-07T10:30:38.077Z,21.04
2023-05-07T10:33:10.323Z,21.20
2023-05-07T10:35:41.719Z,21.31
2023-05-07T10:38:11.766Z,21.32
2023-05-07T10:40:40.096Z,21.36
2023-05-07T10:43:10.879Z,21.41
2023-05-07T10:45:39.119Z,21.45
2023-05-07T10:48:29.770Z,21.44
2023-05-07T10:51:23.416Z,21.47
2023-05-07T10:54:23.054Z,21.75
2023-05-07T10:56:52.286Z,21.91
2023-05-07T10:59:35.081Z,22.10
2023-05-07T11:02:05.619Z,22.31
2023-05-07T11:04:36.349Z,22.52
2023-05-07T11:07:37.965Z,22.70
2023-05-07T11:10:09.161Z,22.75
2023-05-07T11:12:54.517Z,22.84
2023-05-07T11:15:45.293Z,22.97
2023-05-07T11:18:14.756Z,22.95
2023-05-07T11:20:57.278Z,22.88
2023-05-07T11:24:02.394Z,22.77
2023-05-07T11:26:43.283Z,22.75
2023-05-07T11:29:14.031Z,22.67
2023-05-07T11:31:42.378Z,22.54
2023-05-07T11:34:11.022Z,22.41
2023-05-07T11:36:45.372Z,22.22
2023-05-07T11:39:27.313Z,21.94
2023-05-07T11:41:58.421Z,21.79
2023-05-07T11:44:26.468Z,21.63
2023-05-07T11:46:54.932Z,21.52
2023-05-07T11:49:23.375Z,21.45
2023-05-07T11:51:51.612Z,21.44
2023-05-07T11:54:19.741Z,21.42
2023-05-07T11:56:49.145Z,21.24
2023-05-07T11:59:21.580Z,21.18
2023-05-07T12:01:50.385Z,21.22
2023-05-07T12:04:23.127Z,21.25
2023-05-07T12:06:52.134Z,21.26
2023-05-07T12:09:20.483Z,21.24
2023-05-07T12:11:48.978Z,21.23
2023-05-07T12:14:18.168Z,21.16
2023-05-07T12:16:48.715Z,21.20
2023-05-07T12:19:17.263Z,21.34
2023-05-07T12:21:45.806Z,21.45
2023-05-07T12:24:14.115Z,21.54
2023-05-07T12:26:43.228Z,21.60
2023-05-07T12:29:11.725Z,21.55
2023-05-07T12:31:43.713Z,21.44
2023-05-07T12:34:15.095Z,21.39
2023-05-07T12:36:43.930Z,21.43
2023-05-07T12:39:12.526Z,21.49
2023-05-07T12:41:55.705Z,21.60
2023-05-07T12:44:25.753Z,21.75
2023-05-07T12:46:54.096Z,21.70
2023-05-07T12:49:26.082Z,21.81
2023-05-07T12:51:55.503Z,21.91
2023-05-07T12:54:33.635Z,21.96
2023-05-07T12:57:05.927Z,22.11
2023-05-07T12:59:35.395Z,22.12
2023-05-07T13:02:03.669Z,22.19
2023-05-07T13:04:33.771Z,22.31
2023-05-07T13:07:02.226Z,22.25
2023-05-07T13:09:30.390Z,22.23
2023-05-07T13:12:01.070Z,22.58
2023-05-07T13:14:29.378Z,23.02
2023-05-07T13:16:57.879Z,23.41
2023-05-07T13:19:26.534Z,23.90
2023-05-07T13:21:56.210Z,24.32
2023-05-07T13:24:24.207Z,24.72
2023-05-07T13:26:52.290Z,25.06
2023-05-07T13:29:20.411Z,25.29
2023-05-07T13:31:49.795Z,25.45
2023-05-07T13:34:18.379Z,25.55
2023-05-07T13:36:46.471Z,25.66
2023-05-07T13:39:16.998Z,25.59
2023-05-07T13:41:45.086Z,25.63
2023-05-07T13:44:13.221Z,25.71
2023-05-07T13:46:41.231Z,26.17
2023-05-07T13:49:09.261Z,26.51
2023-05-07T13:51:37.350Z,26.64
2023-05-07T13:54:05.754Z,26.74
2023-05-07T13:56:35.236Z,27.18
2023-05-07T13:59:03.324Z,27.41
2023-05-07T14:01:31.471Z,27.29
2023-05-07T14:04:00.713Z,27.33
2023-05-07T14:06:29.048Z,27.32
2023-05-07T14:08:59.310Z,27.39
2023-05-07T14:11:27.555Z,27.28
2023-05-07T14:13:57.973Z,27.21
2023-05-07T14:16:26.263Z,27.18
2023-05-07T14:18:57.819Z,27.10
2023-05-07T14:21:26.871Z,26.91
2023-05-07T14:23:55.098Z,26.61
2023-05-07T14:26:24.371Z,26.49
2023-05-07T14:28:52.420Z,26.46
2023-05-07T14:31:22.073Z,26.58
2023-05-07T14:33:50.925Z,26.31
2023-05-07T14:36:21.088Z,25.88
2023-05-07T14:38:49.817Z,25.82
2023-05-07T14:41:18.339Z,25.78
2023-05-07T14:43:51.085Z,25.87
2023-05-07T14:46:19.871Z,26.05
2023-05-07T14:48:49.471Z,26.06
2023-05-07T14:51:17.620Z,26.22
2023-05-07T14:53:46.225Z,26.05
2023-05-07T14:56:14.435Z,25.76
2023-05-07T14:58:42.770Z,25.57
2023-05-07T15:01:10.922Z,25.20
2023-05-07T15:03:39.176Z,24.79
2023-05-07T15:06:09.526Z,24.58
2023-05-07T15:08:37.827Z,24.43
2023-05-07T15:11:05.935Z,24.30
2023-05-07T15:13:34.355Z,24.38
2023-05-07T15:16:02.579Z,24.31
2023-05-07T15:18:30.704Z,24.52
2023-05-07T15:20:59.848Z,24.72
2023-05-07T15:23:29.604Z,24.87
2023-05-07T15:25:58.504Z,24.81
2023-05-07T15:28:26.803Z,24.62
2023-05-07T15:30:56.289Z,24.45
2023-05-07T15:33:24.980Z,24.37
2023-05-07T15:35:53.043Z,24.38
2023-05-07T15:38:21.253Z,24.35
2023-05-07T15:40:51.161Z,24.34
2023-05-07T15:43:19.705Z,24.56
2023-05-07T15:45:47.881Z,24.86
2023-05-07T15:48:16.069Z,24.99
2023-05-07T15:50:44.530Z,24.98
2023-05-07T15:53:14.066Z,24.74
2023-05-07T15:55:44.579Z,24.55
2023-05-07T15:58:14.358Z,24.36
2023-05-07T16:00:42.964Z,24.17
2023-05-07T16:03:11.209Z,23.97
2023-05-07T16:05:39.938Z,23.84
2023-05-07T16:08:08.732Z,23.71
2023-05-07T16:10:36.835Z,23.59
2023-05-07T16:13:05.024Z,23.52
2023-05-07T16:15:35.196Z,23.42
2023-05-07T16:18:03.366Z,23.32
2023-05-07T16:20:31.702Z,23.04
2023-05-07T16:22:59.952Z,22.93
2023-05-07T16:25:28.059Z,22.65
2023-05-07T16:27:57.025Z,22.46
2023-05-07T16:30:25.734Z,22.20
2023-05-07T16:32:55.579Z,21.94
2023-05-07T16:35:23.766Z,21.77
2023-05-07T16:37:52.114Z,21.66
2023-05-07T16:40:20.432Z,21.57
2023-05-07T16:42:48.667Z,21.55
2023-05-07T16:45:17.250Z,21.53
2023-05-07T16:47:45.651Z,21.42
2023-05-07T16:52:43.842Z,21.38
2023-05-07T16:55:12.962Z,21.30
2023-05-07T16:57:41.300Z,21.23
2023-05-07T17:00:11.821Z,21.23
2023-05-07T17:02:40.149Z,21.24
2023-05-07T17:05:09.275Z,21.20
2023-05-07T17:07:39.629Z,21.22
2023-05-07T17:10:09.088Z,21.18
2023-05-07T17:12:37.739Z,21.08
2023-05-07T17:15:07.139Z,21.06
2023-05-07T17:17:35.349Z,20.94
2023-05-07T17:20:03.800Z,20.79
2023-05-07T17:22:31.870Z,20.68
2023-05-07T17:25:03.683Z,20.64
2023-05-07T17:27:32.492Z,20.54
2023-05-07T17:30:00.550Z,20.43
2023-05-07T17:32:29.557Z,20.40
2023-05-07T17:34:57.699Z,20.40
2023-05-07T17:37:25.796Z,20.50
2023-05-07T17:39:54.782Z,20.55
2023-05-07T17:42:24.660Z,20.62
2023-05-07T17:44:53.039Z,20.77
2023-05-07T17:47:21.162Z,20.88
2023-05-07T17:49:49.428Z,20.97
2023-05-07T17:52:17.598Z,21.16
2023-05-07T17:54:45.779Z,21.44
2023-05-07T17:57:14.294Z,21.66
2023-05-07T17:59:44.208Z,21.74
2023-05-07T18:02:12.422Z,21.86
2023-05-07T18:04:40.532Z,22.07
2023-05-07T18:07:08.897Z,22.33
2023-05-07T18:12:36.651Z,22.65
2023-05-07T18:15:08.098Z,22.66
2023-05-07T18:17:36.852Z,22.83
2023-05-07T18:20:06.562Z,23.05
2023-05-07T18:28:30.457Z,23.80
2023-05-07T18:31:00.531Z,24.23
2023-05-07T18:33:29.080Z,24.49
2023-05-07T18:36:15.261Z,24.81
2023-05-07T18:38:45.246Z,25.29
2023-05-07T18:41:15.090Z,25.31
2023-05-07T18:43:45.398Z,24.92
2023-05-07T18:46:17.187Z,24.48
2023-05-07T18:48:47.601Z,24.14
2023-05-07T18:51:17.120Z,23.77
2023-05-07T18:53:48.033Z,23.48
2023-05-07T18:56:17.703Z,23.11
2023-05-07T18:58:46.647Z,22.80
2023-05-07T19:01:17.133Z,22.61
2023-05-07T19:03:46.032Z,22.43
2023-05-07T19:06:15.379Z,22.25
2023-05-07T19:08:44.280Z,22.07
2023-05-07T19:11:13.330Z,21.92
2023-05-07T19:13:41.359Z,21.79
2023-05-07T19:16:12.589Z,21.71
2023-05-07T19:18:43.789Z,21.59
2023-05-07T19:23:43.753Z,21.28
2023-05-07T19:26:13.043Z,21.13
2023-05-07T19:28:45.500Z,21.01
2023-05-07T19:31:22.074Z,20.90
2023-05-07T19:33:52.245Z,20.79
2023-05-07T19:36:20.873Z,20.72
2023-05-07T19:38:50.454Z,20.67
2023-05-07T19:41:18.720Z,20.60
2023-05-07T19:43:46.825Z,20.56
2023-05-07T19:46:16.722Z,20.50
2023-05-07T19:48:45.812Z,20.39
2023-05-07T19:51:15.404Z,20.32
2023-05-07T19:53:45.063Z,20.27
2023-05-07T19:56:15.088Z,20.23
2023-05-07T19:58:46.244Z,20.25
2023-05-07T20:01:15.405Z,20.19
2023-05-07T20:03:43.654Z,20.15
2023-05-07T20:06:12.540Z,20.10
2023-05-07T20:08:43.438Z,19.98
2023-05-07T20:11:13.584Z,19.92
2023-05-07T20:13:41.839Z,19.92
2023-05-07T20:16:11.212Z,19.86
2023-05-07T20:18:39.491Z,19.84
2023-05-07T20:21:08.089Z,19.85
2023-05-07T20:23:36.417Z,19.84
2023-05-07T20:26:06.024Z,19.77
2023-05-07T20:28:34.972Z,19.72
2023-05-07T20:31:03.742Z,19.70
2023-05-07T20:33:32.140Z,19.67
2023-05-07T20:36:00.425Z,19.62
2023-05-07T20:38:30.641Z,19.58
2023-05-07T20:40:59.051Z,19.60
2023-05-07T20:43:29.345Z,19.58
2023-05-07T20:46:01.052Z,19.58
2023-05-07T20:48:30.947Z,19.61
2023-05-07T20:51:00.147Z,19.57
2023-05-07T20:53:29.484Z,19.58
2023-05-07T20:55:58.335Z,19.56
2023-05-07T20:58:29.355Z,19.52
2023-05-07T21:00:57.912Z,19.48
2023-05-07T21:03:26.120Z,19.44
2023-05-07T21:05:56.152Z,19.42
2023-05-07T21:08:25.148Z,19.38
2023-05-07T21:10:58.495Z,19.35
2023-05-07T21:13:28.661Z,19.29
2023-05-07T21:15:57.280Z,19.28
2023-05-07T21:18:26.943Z,19.23
2023-05-07T21:20:55.556Z,19.23
2023-05-07T21:23:23.926Z,19.15
2023-05-07T21:26:25.187Z,19.12
2023-05-07T21:29:01.659Z,19.03
2023-05-07T21:31:30.345Z,19.00
2023-05-07T21:33:58.709Z,18.92
2023-05-07T21:36:27.503Z,18.83
2023-05-07T21:38:55.662Z,18.78
2023-05-07T21:41:24.161Z,18.73
2023-05-07T21:43:52.709Z,18.72
2023-05-07T21:46:22.558Z,18.66
2023-05-07T21:48:50.612Z,18.61
2023-05-07T21:51:18.948Z,18.62
2023-05-07T21:53:48.086Z,18.58
2023-05-07T21:56:16.329Z,18.53
2023-05-07T21:58:44.591Z,18.48
2023-05-07T22:01:13.184Z,18.43
2023-05-07T22:03:43.011Z,18.37
2023-05-07T22:06:11.161Z,18.24
2023-05-07T22:08:39.459Z,18.19
2023-05-07T22:11:07.819Z,18.15
2023-05-07T22:13:36.023Z,18.12
2023-05-07T22:16:04.243Z,18.08
2023-05-07T22:18:32.462Z,18.06
2023-05-07T22:21:02.253Z,18.04
2023-05-07T22:23:30.552Z,18.04
2023-05-07T22:25:58.623Z,17.99
2023-05-07T22:28:26.997Z,18.02
2023-05-07T22:30:57.576Z,18.01
2023-05-07T22:33:28.513Z,18.01
2023-05-07T22:35:57.276Z,18.00
2023-05-07T22:38:27.488Z,18.01
2023-05-07T22:40:56.436Z,18.00
2023-05-07T22:43:27.339Z,17.96
2023-05-07T22:46:01.605Z,17.93
2023-05-07T22:48:30.551Z,17.95
2023-05-07T22:50:59.409Z,17.96
2023-05-07T22:53:31.522Z,17.99
2023-05-07T22:56:00.060Z,18.00
2023-05-07T22:58:28.759Z,17.99
2023-05-07T23:01:01.702Z,17.99
2023-05-07T23:06:24.960Z,18.07
2023-05-07T23:08:56.007Z,18.08
2023-05-07T23:11:24.786Z,18.05
2023-05-07T23:13:53.640Z,18.05
2023-05-07T23:16:22.219Z,18.07
2023-05-07T23:18:50.672Z,18.06
2023-05-07T23:21:19.236Z,18.08
2023-05-07T23:23:49.585Z,18.10
2023-05-07T23:26:20.969Z,18.09
2023-05-07T23:28:49.334Z,18.11
2023-05-07T23:31:21.045Z,18.13
2023-05-07T23:33:53.814Z,18.09
2023-05-07T23:36:22.279Z,18.09
2023-05-07T23:38:51.206Z,18.08
2023-05-07T23:41:21.817Z,18.11
2023-05-07T23:43:50.647Z,18.12
2023-05-07T23:46:25.730Z,18.14
2023-05-07T23:49:03.426Z,18.17
2023-05-07T23:51:32.486Z,18.18
2023-05-07T23:54:00.843Z,18.19
2023-05-07T23:56:30.867Z,18.15
2023-05-07T23:59:11.578Z,18.17
